Terminal Aerodrome Forecast
Issued by NWS

Home | Current Version | Previous Version | Text Only | Print | Product List | Glossary On
Versions: 1 2 3 4 5 6 7 8 9 10 11 12 13 14 15 16 17 18 19 20 21 22
000
FTUS46 KMTR 192334
TAFMRY
TAF
KMRY 192334Z 2000/2024 14005KT P6SM -RA OVC040
     FM200600 19012G18KT P6SM -RA OVC025 WS015/22040KT
     FM201300 19014G20KT P6SM VCSH OVC030
     FM202100 22018G24KT P6SM VCSH OVC040=

USA.gov is the U.S. government's official web portal to all federal, state and local government web resources and services.